This is the latest recevied weather packets stored in our database for station/object F8BJE-13. If no packets are shown the sender has not sent any weather packets the latest 10 day(s).
| Time | Temp. | Humidity | Pressure | Rain* | Wind** | Luminosity | Snow |
|---|---|---|---|---|---|---|---|
| 1787511603 | 20.56° C | 37% | 1020.7 hPa | 0 mm | - | - | - |
| 1787509803 | 21.67° C | 35% | 1020.4 hPa | 0 mm | - | - | - |
| 1787508003 | 22.78° C | 33% | 1020.5 hPa | 0 mm | - | - | - |
| 1787506203 | 23.89° C | 32% | 1020.6 hPa | 0 mm | - | - | - |
| 1787504403 | 25.56° C | 28% | 1021 hPa | 0 mm | - | - | - |
| 1787502603 | 27.78° C | 24% | 1021.2 hPa | 0 mm | - | - | - |
| 1787500804 | 30° C | 21% | 1021.3 hPa | 0 mm | - | - | - |
| 1787499003 | 27.78° C | 25% | 1021.4 hPa | 0 mm | - | - | - |
| 1787497203 | 30.56° C | 21% | 1021.3 hPa | 0 mm | - | - | - |
| 1787495403 | 30.56° C | 22% | 1021.4 hPa | 0 mm | - | - | - |
| 1787493603 | 30.56° C | 22% | 1021.7 hPa | 0 mm | - | - | - |
| 1787491803 | 31.11° C | 23% | 1021.9 hPa | 0 mm | - | - | - |
| 1787490003 | 28.89° C | 26% | 1022.1 hPa | 0 mm | - | - | - |
| 1787488203 | 29.44° C | 23% | 1022.2 hPa | 0 mm | - | - | - |
| 1787486403 | 28.89° C | 30% | 1022.4 hPa | 0 mm | - | - | - |
| 1787484603 | 28.33° C | 30% | 1022.6 hPa | 0 mm | - | - | - |
| 1787482803 | 25.56° C | 32% | 1022.8 hPa | 0 mm | - | - | - |
| 1787481003 | 24.44° C | 38% | 1023.2 hPa | 0 mm | - | - | - |
| 1787479203 | 25° C | 33% | 1023.4 hPa | 0 mm | - | - | - |
| 1787477403 | 24.44° C | 39% | 1023.6 hPa | 0 mm | - | - | - |
| 1787475603 | 23.33° C | 41% | 1023.6 hPa | 0 mm | - | - | - |
| 1787473803 | 22.78° C | 42% | 1023.6 hPa | 0 mm | - | - | - |
| 1787472003 | 22.22° C | 42% | 1023.6 hPa | 0 mm | - | - | - |
| 1787470203 | 21.11° C | 43% | 1023.7 hPa | 0 mm | - | - | - |
| 1787468403 | 19.44° C | 46% | 1023.9 hPa | 0 mm | - | - | - |
* Rain latest hour (hover to see other rain measurements)
** Current wind speed in m/s (hover to see current wind gust speed)